createdAt,value
2019-05-01T00:03:23.188Z,11.5
2019-05-01T00:08:28.391Z,11.5
2019-05-01T00:13:33.480Z,11.5
2019-05-01T00:18:38.633Z,11.6
2019-05-01T00:23:43.599Z,11.6
2019-05-01T00:28:48.804Z,11.5
2019-05-01T00:33:53.750Z,11.5
2019-05-01T00:38:58.827Z,11.5
2019-05-01T00:44:04.024Z,11.5
2019-05-01T00:49:07.825Z,11.5
2019-05-01T00:54:13.055Z,11.5
2019-05-01T00:59:18.357Z,11.4
2019-05-01T01:04:23.328Z,11.4
2019-05-01T01:09:28.525Z,11.5
2019-05-01T01:14:33.628Z,11.5
2019-05-01T01:19:38.903Z,11.5
2019-05-01T01:24:43.936Z,11.5
2019-05-01T01:29:48.980Z,11.5
2019-05-01T01:34:54.164Z,11.5
2019-05-01T01:39:59.372Z,11.6
2019-05-01T01:45:04.439Z,11.6
2019-05-01T01:50:09.629Z,11.5
2019-05-01T01:55:14.735Z,11.4
2019-05-01T02:00:19.917Z,11.4
2019-05-01T02:05:24.919Z,11.3
2019-05-01T02:10:44.513Z,11.3
2019-05-01T02:15:39.574Z,11.3
2019-05-01T02:20:44.540Z,11.3
2019-05-01T02:25:49.528Z,11.3
2019-05-01T02:30:54.783Z,11.2
2019-05-01T02:35:59.884Z,11.1
2019-05-01T02:41:05.010Z,11
2019-05-01T02:46:09.942Z,10.8
2019-05-01T02:51:15.262Z,10.7
2019-05-01T02:56:20.145Z,10.5
2019-05-01T03:01:25.188Z,10.5
2019-05-01T03:06:30.335Z,10.5
2019-05-01T03:11:35.588Z,10.6
2019-05-01T03:16:40.674Z,10.7
2019-05-01T03:21:45.849Z,10.8
2019-05-01T03:26:50.892Z,10.9
2019-05-01T03:32:20.885Z,11
2019-05-01T03:36:55.964Z,11
2019-05-01T03:42:00.967Z,11
2019-05-01T03:47:05.920Z,11
2019-05-01T03:52:11.050Z,11
2019-05-01T03:57:16.130Z,10.9
2019-05-01T04:02:35.879Z,11
2019-05-01T04:07:30.976Z,11
2019-05-01T04:12:40.519Z,11
2019-05-01T04:17:45.607Z,11
2019-05-01T04:22:50.812Z,11
2019-05-01T04:27:59.742Z,11.1
2019-05-01T04:33:04.872Z,11.1
2019-05-01T04:38:09.910Z,11.1
2019-05-01T04:43:14.992Z,11.2
2019-05-01T04:48:20.090Z,11.5
2019-05-01T04:53:25.353Z,11.9
2019-05-01T04:58:30.387Z,12.5
2019-05-01T05:03:38.206Z,13.2
2019-05-01T05:08:43.167Z,13.8
2019-05-01T05:13:48.949Z,14.8
2019-05-01T05:18:56.685Z,15.1
2019-05-01T05:24:03.990Z,15.1
2019-05-01T05:29:09.188Z,15.1
2019-05-01T05:34:14.233Z,15.2
2019-05-01T05:39:22.675Z,15
2019-05-01T05:44:27.921Z,15.2
2019-05-01T05:49:33.120Z,15.4
2019-05-01T05:54:38.096Z,15.2
2019-05-01T05:59:45.972Z,15
2019-05-01T06:04:51.152Z,14.9
2019-05-01T06:09:56.079Z,14.9
2019-05-01T06:15:08.719Z,14.7
2019-05-01T06:20:03.978Z,14.7
2019-05-01T06:25:25.132Z,14.5
2019-05-01T06:30:13.595Z,14.8
2019-05-01T06:35:16.996Z,14.8
2019-05-01T06:40:24.759Z,15.3
2019-05-01T06:45:30.026Z,15.3
2019-05-01T06:50:42.919Z,15.8
2019-05-01T06:55:37.943Z,15.9
2019-05-01T07:00:45.387Z,17.3
2019-05-01T07:05:57.309Z,17.5
2019-05-01T07:10:52.285Z,17.4
2019-05-01T07:16:04.357Z,18.2
2019-05-01T07:20:59.527Z,18.2
2019-05-01T07:26:04.546Z,18.3
2019-05-01T07:31:09.799Z,18.7
2019-05-01T07:36:18.103Z,19.4
2019-05-01T07:41:38.924Z,19.2
2019-05-01T07:46:24.173Z,19.2
2019-05-01T07:57:39.298Z,20.9
2019-05-01T08:17:17.925Z,22.4
2019-05-01T08:21:48.095Z,22.3
2019-05-01T08:26:52.947Z,22.9
2019-05-01T08:32:07.353Z,24.2
2019-05-01T08:37:08.275Z,25.5
2019-05-01T08:42:13.988Z,28.1
2019-05-01T08:47:27.721Z,31.1
2019-05-01T08:52:55.259Z,30.5
2019-05-01T08:58:21.775Z,27.7
2019-05-01T09:08:21.215Z,23.1
2019-05-01T09:32:28.407Z,29.8
2019-05-01T09:33:43.618Z,30.4
2019-05-01T09:38:51.937Z,27.7
2019-05-01T09:43:57.518Z,25.1
2019-05-01T09:49:03.025Z,25
2019-05-01T09:54:11.080Z,22.5
2019-05-01T09:59:06.326Z,22.6
2019-05-01T10:04:11.077Z,25.5
2019-05-01T10:09:19.798Z,27
2019-05-01T10:14:25.066Z,27
2019-05-01T10:19:32.978Z,30.6
2019-05-01T10:24:40.471Z,33.1
2019-05-01T10:34:49.280Z,29.6
2019-05-01T10:39:56.468Z,31
2019-05-01T10:45:01.758Z,30.9
2019-05-01T10:50:06.932Z,34.9
2019-05-01T10:55:11.887Z,31.9
2019-05-01T11:00:17.125Z,28.2
2019-05-01T11:05:22.436Z,25.9
2019-05-01T11:10:27.589Z,22.5
2019-05-01T11:15:36.326Z,19.9
2019-05-01T11:20:40.339Z,19.8
2019-05-01T11:25:46.491Z,25.7
2019-05-01T11:30:51.611Z,25.6
2019-05-01T11:36:10.009Z,26.3
2019-05-01T11:41:02.731Z,26.2
2019-05-01T11:46:06.280Z,24.7
2019-05-01T11:51:11.913Z,23.9
2019-05-01T11:56:17.282Z,24.1
2019-05-01T12:01:22.648Z,23.9
2019-05-01T12:06:26.470Z,23.9
2019-05-01T12:11:26.805Z,23.9
2019-05-01T12:16:31.756Z,24.2
2019-05-01T12:21:37.689Z,21.7
2019-05-01T12:26:42.688Z,21.6
2019-05-01T12:31:48.057Z,22
2019-05-01T12:36:53.261Z,22.7
2019-05-01T12:41:58.618Z,23
2019-05-01T12:47:08.036Z,21.4
2019-05-01T12:52:13.339Z,21.4
2019-05-01T12:57:18.383Z,21.3
2019-05-01T13:02:23.753Z,21.1
2019-05-01T13:07:32.535Z,20
2019-05-01T13:12:36.449Z,20
2019-05-01T13:17:41.538Z,20.6
2019-05-01T13:22:46.931Z,20.7
2019-05-01T13:27:51.915Z,21
2019-05-01T13:32:57.130Z,21.4
2019-05-01T13:38:02.256Z,21.9
2019-05-01T13:43:08.076Z,22
2019-05-01T13:48:13.360Z,22
2019-05-01T13:53:18.615Z,21.6
2019-05-01T13:58:23.535Z,21.6
2019-05-01T14:03:29.193Z,21.7
2019-05-01T14:08:34.378Z,21.9
2019-05-01T14:13:41.893Z,21.1
2019-05-01T14:18:47.058Z,21
2019-05-01T14:23:52.761Z,21
2019-05-01T14:28:57.707Z,20.8
2019-05-01T14:34:02.891Z,20.6
2019-05-01T14:39:08.004Z,20.5
2019-05-01T14:44:13.035Z,20.7
2019-05-01T14:49:18.236Z,20.8
2019-05-01T14:54:23.389Z,20.4
2019-05-01T14:59:28.646Z,20.7
2019-05-01T15:04:33.691Z,20.6
2019-05-01T15:09:38.797Z,20
2019-05-01T15:14:44.064Z,19.9
2019-05-01T15:19:49.291Z,19.9
2019-05-01T15:24:54.479Z,19.9
2019-05-01T15:29:59.473Z,20
2019-05-01T15:35:03.352Z,19.9
2019-05-01T15:40:07.043Z,19.9
2019-05-01T15:45:13.678Z,19.7
2019-05-01T15:50:14.834Z,19.7
2019-05-01T15:55:19.745Z,19.4
2019-05-01T16:00:25.025Z,19.3
2019-05-01T16:05:30.134Z,19.2
2019-05-01T16:10:35.247Z,19
2019-05-01T16:15:40.750Z,18.8
2019-05-01T16:20:45.837Z,18.8
2019-05-01T16:25:53.550Z,18.7
2019-05-01T16:30:58.589Z,18.6
2019-05-01T16:36:03.847Z,18.6
2019-05-01T16:41:08.979Z,18.5
2019-05-01T16:46:14.110Z,18.4
2019-05-01T16:51:20.640Z,18.3
2019-05-01T16:56:26.071Z,18.3
2019-05-01T17:01:31.953Z,18.1
2019-05-01T17:06:40.516Z,17.9
2019-05-01T17:11:45.629Z,17.8
2019-05-01T17:16:51.193Z,17.6
2019-05-01T17:22:00.818Z,17.3
2019-05-01T17:27:06.029Z,17.3
2019-05-01T17:32:16.385Z,16.9
2019-05-01T17:37:12.097Z,16.6
2019-05-01T17:42:15.903Z,16.6
2019-05-01T17:47:27.949Z,16.2
2019-05-01T17:52:22.996Z,16.2
2019-05-01T17:57:27.868Z,16
2019-05-01T18:02:32.767Z,15.8
2019-05-01T18:07:36.868Z,15.4
2019-05-01T18:12:42.064Z,15.4
2019-05-01T18:17:47.112Z,15.2
2019-05-01T18:22:55.169Z,15
2019-05-01T18:28:01.431Z,15
2019-05-01T18:33:07.803Z,14.9
2019-05-01T18:38:14.763Z,14.8
2019-05-01T18:43:20.620Z,14.7
2019-05-01T18:48:27.437Z,14.6
2019-05-01T18:53:32.608Z,14.4
2019-05-01T18:58:39.894Z,14
2019-05-01T19:03:49.252Z,13.9
2019-05-01T19:08:54.443Z,13.9
2019-05-01T19:13:59.604Z,13.7
2019-05-01T19:19:05.961Z,13.4
2019-05-01T19:24:09.425Z,13.4
2019-05-01T19:29:14.751Z,13.3
2019-05-01T19:34:20.114Z,13.1
2019-05-01T19:39:25.164Z,12.9
2019-05-01T19:44:28.758Z,12.8
2019-05-01T19:49:35.089Z,12.7
2019-05-01T19:54:41.389Z,12.8
2019-05-01T19:59:47.794Z,13
2019-05-01T20:04:54.362Z,13.2
2019-05-01T20:09:59.843Z,13.2
2019-05-01T20:15:09.921Z,13.3
2019-05-01T20:20:15.482Z,13.3
2019-05-01T20:25:22.716Z,13.3
2019-05-01T20:30:31.996Z,13.2
2019-05-01T20:35:38.332Z,13.2
2019-05-01T20:40:44.284Z,13.1
2019-05-01T20:45:52.331Z,13.2
2019-05-01T20:50:56.221Z,13.2
2019-05-01T20:56:01.581Z,13.2
2019-05-01T21:01:06.820Z,13.1
2019-05-01T21:06:11.057Z,12.8
2019-05-01T21:11:16.173Z,12.8
2019-05-01T21:16:21.230Z,12.8
2019-05-01T21:21:26.584Z,12.8
2019-05-01T21:26:33.523Z,12.8
2019-05-01T21:31:38.456Z,12.7
2019-05-01T21:36:52.486Z,12.7
2019-05-01T21:41:49.772Z,12.7
2019-05-01T21:46:55.356Z,12.6
2019-05-01T21:52:00.921Z,12.5
2019-05-01T21:57:11.858Z,12.4
2019-05-01T22:02:13.774Z,12.3
2019-05-01T22:07:18.538Z,12.2
2019-05-01T22:12:28.452Z,12.2
2019-05-01T22:17:34.543Z,12.2
2019-05-01T22:22:46.969Z,12.1
2019-05-01T22:27:42.386Z,12.1
2019-05-01T22:32:47.317Z,12
2019-05-01T22:37:52.521Z,11.9
2019-05-01T22:42:56.164Z,11.9
2019-05-01T22:48:01.209Z,11.8
2019-05-01T22:53:14.346Z,11.6
2019-05-01T22:58:07.873Z,11.6
2019-05-01T23:03:12.970Z,11.5
2019-05-01T23:08:18.569Z,11.4
2019-05-01T23:13:24.675Z,11.4
2019-05-01T23:18:30.257Z,11.3
2019-05-01T23:23:34.764Z,11.3
2019-05-01T23:28:42.439Z,11.2
2019-05-01T23:33:52.995Z,11.1
2019-05-01T23:38:58.108Z,11.1
2019-05-01T23:44:06.453Z,11
2019-05-01T23:49:11.544Z,11
2019-05-01T23:54:16.917Z,11
2019-05-01T23:59:21.899Z,11
